createdAt,value
2023-04-15T00:00:37.624Z,68.78
2023-04-15T00:03:15.609Z,68.99
2023-04-15T00:05:43.997Z,68.64
2023-04-15T00:08:13.092Z,68.06
2023-04-15T00:10:44.345Z,67.67
2023-04-15T00:13:12.615Z,67.98
2023-04-15T00:15:41.405Z,68.09
2023-04-15T00:18:10.091Z,67.71
2023-04-15T00:20:38.598Z,68.63
2023-04-15T00:23:07.877Z,68.56
2023-04-15T00:25:36.154Z,68.31
2023-04-15T00:28:04.832Z,69.15
2023-04-15T00:30:33.042Z,69.27
2023-04-15T00:33:04.658Z,69.12
2023-04-15T00:35:33.043Z,69.33
2023-04-15T00:38:01.218Z,71.19
2023-04-15T00:40:29.490Z,73.11
2023-04-15T00:42:57.663Z,76.68
2023-04-15T00:45:28.251Z,77.90
2023-04-15T00:47:57.040Z,75.21
2023-04-15T00:50:25.563Z,75.05
2023-04-15T00:52:53.838Z,75.52
2023-04-15T00:55:22.835Z,75.48
2023-04-15T00:57:52.846Z,75.77
2023-04-15T01:00:21.739Z,77.85
2023-04-15T01:02:51.262Z,75.91
2023-04-15T01:05:19.823Z,79.56
2023-04-15T01:07:48.963Z,81.60
2023-04-15T01:10:17.406Z,82.37
2023-04-15T01:12:45.775Z,83.57
2023-04-15T01:15:13.948Z,82.40
2023-04-15T01:17:42.719Z,84.85
2023-04-15T01:20:12.452Z,85.60
2023-04-15T01:22:41.545Z,86.41
2023-04-15T01:25:17.916Z,85.84
2023-04-15T01:27:46.697Z,85.60
2023-04-15T01:30:15.791Z,86.45
2023-04-15T01:32:44.159Z,85.32
2023-04-15T01:35:13.366Z,83.60
2023-04-15T01:37:42.360Z,83.16
2023-04-15T01:40:11.309Z,83.29
2023-04-15T01:42:39.738Z,83.16
2023-04-15T01:45:09.027Z,83.69
2023-04-15T01:47:39.596Z,82.94
2023-04-15T01:50:08.762Z,83.36
2023-04-15T01:52:37.137Z,85.69
2023-04-15T01:55:06.412Z,86.70
2023-04-15T01:57:34.613Z,87.70
2023-04-15T02:00:04.741Z,86.02
2023-04-15T02:02:41.669Z,87.20
2023-04-15T02:05:11.220Z,88.09
2023-04-15T02:07:39.399Z,87.52
2023-04-15T02:10:08.184Z,87.27
2023-04-15T02:12:37.141Z,87.42
2023-04-15T02:15:06.472Z,87.86
2023-04-15T02:17:35.977Z,87.38
2023-04-15T02:20:08.966Z,86.54
2023-04-15T02:22:37.139Z,87.03
2023-04-15T02:25:06.296Z,86.58
2023-04-15T02:27:34.620Z,86.65
2023-04-15T02:30:03.351Z,85.06
2023-04-15T02:32:31.685Z,82.56
2023-04-15T02:35:05.750Z,82.51
2023-04-15T02:37:40.793Z,84.96
2023-04-15T02:40:12.388Z,87.06
2023-04-15T02:42:41.268Z,87.63
2023-04-15T02:45:13.244Z,87.59
2023-04-15T02:47:41.962Z,88.35
2023-04-15T02:50:13.406Z,88.08
2023-04-15T02:52:43.694Z,87.88
2023-04-15T02:55:12.795Z,88.30
2023-04-15T02:57:41.676Z,87.57
2023-04-15T03:00:12.226Z,86.44
2023-04-15T03:02:47.211Z,84.78
2023-04-15T03:05:15.780Z,84.42
2023-04-15T03:07:49.411Z,84.46
2023-04-15T03:10:18.207Z,84.23
2023-04-15T03:12:48.434Z,83.55
2023-04-15T03:15:19.574Z,83.00
2023-04-15T03:17:50.830Z,83.15
2023-04-15T03:20:19.232Z,83.93
2023-04-15T03:22:48.901Z,83.68
2023-04-15T03:25:17.413Z,82.93
2023-04-15T03:27:45.760Z,82.02
2023-04-15T03:30:14.145Z,82.89
2023-04-15T03:32:42.643Z,83.80
2023-04-15T03:35:11.002Z,83.11
2023-04-15T03:37:39.375Z,81.46
2023-04-15T03:40:08.913Z,82.37
2023-04-15T03:42:37.057Z,84.11
2023-04-15T03:45:06.768Z,83.75
2023-04-15T03:47:34.953Z,85.03
2023-04-15T03:50:03.218Z,85.99
2023-04-15T03:52:31.598Z,85.77
2023-04-15T03:54:59.871Z,84.89
2023-04-15T03:57:28.250Z,84.94
2023-04-15T03:59:56.422Z,85.07
2023-04-15T04:02:24.715Z,84.57
2023-04-15T04:04:53.129Z,82.03
2023-04-15T04:07:24.527Z,83.94
2023-04-15T04:09:53.005Z,83.27
2023-04-15T04:12:21.175Z,83.15
2023-04-15T04:14:49.452Z,84.98
2023-04-15T04:17:17.652Z,86.62
2023-04-15T04:19:46.004Z,86.49
2023-04-15T04:22:14.195Z,87.56
2023-04-15T04:24:42.451Z,86.49
2023-04-15T04:27:10.933Z,87.19
2023-04-15T04:29:39.107Z,87.21
2023-04-15T04:32:07.478Z,86.87
2023-04-15T04:34:35.864Z,86.76
2023-04-15T04:37:04.037Z,87.11
2023-04-15T04:39:32.925Z,86.70
2023-04-15T04:42:01.620Z,86.30
2023-04-15T04:44:29.894Z,86.04
2023-04-15T04:46:58.060Z,85.85
2023-04-15T04:49:26.238Z,86.01
2023-04-15T04:51:54.722Z,86.03
2023-04-15T04:54:23.924Z,86.07
2023-04-15T04:56:52.095Z,85.88
2023-04-15T04:59:20.670Z,85.21
2023-04-15T05:01:55.503Z,85.86
2023-04-15T05:04:24.278Z,86.43
2023-04-15T05:06:52.454Z,86.14
2023-04-15T05:09:20.740Z,86.30
2023-04-15T05:11:48.912Z,87.73
2023-04-15T05:14:17.493Z,87.07
2023-04-15T05:16:45.664Z,87.19
2023-04-15T05:19:13.945Z,86.69
2023-04-15T05:21:42.225Z,85.38
2023-04-15T05:24:10.791Z,86.10
2023-04-15T05:26:38.873Z,84.24
2023-04-15T05:29:07.308Z,84.09
2023-04-15T05:31:35.679Z,83.72
2023-04-15T05:34:05.465Z,83.64
2023-04-15T05:36:33.817Z,83.35
2023-04-15T05:39:02.533Z,83.82
2023-04-15T05:41:30.882Z,82.93
2023-04-15T05:43:59.261Z,83.13
2023-04-15T05:46:27.902Z,82.47
2023-04-15T05:48:56.613Z,82.65
2023-04-15T05:51:25.029Z,83.29
2023-04-15T05:53:53.390Z,82.48
2023-04-15T05:56:21.764Z,81.95
2023-04-15T05:58:51.320Z,81.05
2023-04-15T06:01:21.492Z,81.09
2023-04-15T06:03:50.377Z,80.43
2023-04-15T06:06:18.973Z,80.83
2023-04-15T06:08:47.547Z,80.44
2023-04-15T06:11:15.927Z,80.31
2023-04-15T06:13:44.108Z,80.44
2023-04-15T06:16:12.826Z,80.20
2023-04-15T06:18:41.171Z,79.75
2023-04-15T06:21:09.348Z,79.23
2023-04-15T06:23:38.028Z,78.59
2023-04-15T06:26:06.199Z,78.29
2023-04-15T06:28:34.588Z,78.71
2023-04-15T06:31:02.765Z,78.77
2023-04-15T06:33:32.013Z,77.25
2023-04-15T06:36:00.335Z,75.09
2023-04-15T06:38:28.454Z,73.20
2023-04-15T06:40:56.669Z,70.14
2023-04-15T06:43:25.108Z,71.01
2023-04-15T06:45:53.258Z,68.08
2023-04-15T06:48:22.272Z,67.76
2023-04-15T06:50:50.882Z,66.29
2023-04-15T06:53:19.030Z,63.76
2023-04-15T06:55:47.127Z,63.81
2023-04-15T06:58:15.748Z,62.06
2023-04-15T07:00:44.873Z,62.24
2023-04-15T07:03:13.378Z,60.18
2023-04-15T07:05:41.705Z,61.12
2023-04-15T07:08:09.892Z,59.91
2023-04-15T07:10:38.303Z,59.77
2023-04-15T07:13:09.006Z,59.51
2023-04-15T07:15:37.196Z,58.37
2023-04-15T07:18:05.371Z,59.53
2023-04-15T07:20:33.487Z,58.78
2023-04-15T07:23:01.722Z,56.19
2023-04-15T07:25:29.904Z,57.95
2023-04-15T07:27:58.522Z,58.78
2023-04-15T07:30:26.689Z,59.16
2023-04-15T07:32:55.076Z,59.16
2023-04-15T07:35:23.650Z,60.22
2023-04-15T07:37:52.409Z,60.16
2023-04-15T07:40:20.560Z,61.38
2023-04-15T07:42:49.686Z,62.36
2023-04-15T07:45:17.927Z,62.38
2023-04-15T07:47:46.352Z,64.01
2023-04-15T07:50:14.902Z,62.92
2023-04-15T07:52:44.115Z,63.24
2023-04-15T07:55:12.432Z,62.90
2023-04-15T07:57:42.108Z,63.21
2023-04-15T08:00:10.591Z,63.20
2023-04-15T08:02:43.594Z,62.50
2023-04-15T08:05:11.869Z,63.53
2023-04-15T08:07:40.154Z,63.61
2023-04-15T08:10:08.748Z,63.30
2023-04-15T08:12:37.289Z,63.11
2023-04-15T08:15:06.011Z,63.32
2023-04-15T08:17:34.284Z,63.92
2023-04-15T08:20:04.685Z,64.83
2023-04-15T08:22:33.456Z,65.01
2023-04-15T08:25:01.694Z,65.29
2023-04-15T08:27:29.888Z,65.74
2023-04-15T08:29:58.692Z,66.25
2023-04-15T08:32:27.371Z,66.78
2023-04-15T08:34:55.667Z,66.93
2023-04-15T08:37:24.244Z,67.36
2023-04-15T08:39:52.337Z,69.31
2023-04-15T08:42:31.783Z,70.49
2023-04-15T08:45:01.896Z,73.75
2023-04-15T08:47:34.568Z,74.65
2023-04-15T08:50:04.527Z,74.26
2023-04-15T08:52:32.760Z,74.64
2023-04-15T08:55:03.162Z,76.27
2023-04-15T08:57:32.241Z,76.99
2023-04-15T09:00:05.731Z,78.11
2023-04-15T09:02:34.838Z,76.25
2023-04-15T09:05:06.677Z,75.05
2023-04-15T09:07:36.896Z,75.78
2023-04-15T09:10:07.753Z,77.55
2023-04-15T09:12:37.072Z,77.12
2023-04-15T09:15:06.097Z,79.01
2023-04-15T09:17:34.880Z,79.97
2023-04-15T09:20:13.158Z,79.45
2023-04-15T09:22:43.123Z,79.66
2023-04-15T09:25:23.372Z,79.65
2023-04-15T09:27:53.172Z,77.24
2023-04-15T09:30:21.560Z,76.69
2023-04-15T09:32:58.153Z,76.58
2023-04-15T09:35:30.339Z,76.16
2023-04-15T09:38:10.293Z,75.79
2023-04-15T09:40:41.244Z,76.02
2023-04-15T09:43:13.254Z,76.13
2023-04-15T09:45:48.445Z,74.99
2023-04-15T09:48:22.466Z,74.31
2023-04-15T09:50:53.681Z,75.78
2023-04-15T09:53:23.334Z,76.23
2023-04-15T09:55:56.668Z,75.81
2023-04-15T09:58:29.739Z,76.09
2023-04-15T10:00:58.610Z,76.05
2023-04-15T10:03:29.723Z,75.74
2023-04-15T10:05:59.672Z,76.68
2023-04-15T10:08:33.901Z,73.99
2023-04-15T10:11:03.497Z,72.39
2023-04-15T10:13:37.515Z,71.59
2023-04-15T10:16:17.110Z,71.53
2023-04-15T10:18:48.113Z,71.40
2023-04-15T10:21:18.985Z,71.92
2023-04-15T10:23:47.515Z,73.29
2023-04-15T10:26:17.421Z,72.88
2023-04-15T10:28:49.658Z,73.56
2023-04-15T10:31:18.732Z,74.80
2023-04-15T10:33:48.906Z,74.52
2023-04-15T10:36:19.234Z,74.46
2023-04-15T10:38:47.718Z,74.60
2023-04-15T10:41:21.443Z,75.15
2023-04-15T10:43:53.168Z,75.09
2023-04-15T10:46:39.561Z,75.01
2023-04-15T10:49:15.686Z,75.37
2023-04-15T10:51:47.211Z,77.49
2023-04-15T10:54:16.700Z,77.83
2023-04-15T10:56:45.890Z,76.86
2023-04-15T10:59:17.046Z,78.27
2023-04-15T11:02:06.181Z,79.57
2023-04-15T11:04:57.752Z,79.92
2023-04-15T11:07:39.825Z,79.79
2023-04-15T11:10:14.105Z,80.34
2023-04-15T11:12:42.308Z,80.01
2023-04-15T11:15:35.464Z,80.11
2023-04-15T11:18:11.583Z,79.02
2023-04-15T11:20:48.096Z,79.45
2023-04-15T11:23:20.037Z,78.76
2023-04-15T11:25:48.957Z,79.23
2023-04-15T11:28:17.060Z,79.06
2023-04-15T11:30:45.402Z,79.19
2023-04-15T11:33:14.197Z,78.97
2023-04-15T11:35:42.771Z,79.54
2023-04-15T11:38:14.036Z,79.35
2023-04-15T11:40:46.201Z,78.81
2023-04-15T11:43:16.415Z,78.80
2023-04-15T11:45:58.631Z,76.92
2023-04-15T11:48:36.600Z,76.29
2023-04-15T11:51:07.229Z,74.60
2023-04-15T11:53:39.817Z,73.86
2023-04-15T11:56:10.390Z,73.38
2023-04-15T11:58:39.469Z,72.84
2023-04-15T12:01:08.139Z,70.70
2023-04-15T12:03:39.605Z,69.52
2023-04-15T12:06:21.008Z,70.05
2023-04-15T12:08:49.341Z,68.68
2023-04-15T12:11:17.792Z,67.94
2023-04-15T12:13:50.693Z,67.70
2023-04-15T12:16:20.072Z,67.56
2023-04-15T12:18:56.373Z,68.22
2023-04-15T12:21:26.835Z,67.38
2023-04-15T12:23:57.323Z,64.81
2023-04-15T12:26:30.177Z,65.29
2023-04-15T12:29:02.002Z,64.63
2023-04-15T12:31:30.924Z,65.87
2023-04-15T12:34:00.881Z,64.87
2023-04-15T12:36:32.010Z,63.78
2023-04-15T12:39:00.292Z,63.07
2023-04-15T12:41:28.563Z,63.13
2023-04-15T12:43:56.925Z,63.15
2023-04-15T12:46:26.056Z,61.92
2023-04-15T12:48:54.314Z,62.00
2023-04-15T12:51:22.565Z,62.50
2023-04-15T12:53:51.189Z,62.34
2023-04-15T12:56:20.063Z,62.46
2023-04-15T12:58:49.171Z,61.83
2023-04-15T13:01:17.484Z,61.72
2023-04-15T13:03:45.908Z,61.28
2023-04-15T13:06:14.175Z,61.21
2023-04-15T13:08:51.159Z,61.94
2023-04-15T13:11:26.316Z,61.29
2023-04-15T13:13:54.483Z,61.24
2023-04-15T13:16:23.906Z,61.27
2023-04-15T13:18:52.037Z,60.21
2023-04-15T13:21:20.890Z,60.84
2023-04-15T13:23:51.178Z,60.68
2023-04-15T13:26:19.652Z,60.55
2023-04-15T13:28:47.948Z,60.86
2023-04-15T13:31:16.297Z,60.60
2023-04-15T13:33:44.563Z,60.72
2023-04-15T13:36:12.726Z,60.69
2023-04-15T13:38:40.995Z,60.51
2023-04-15T13:41:09.107Z,60.27
2023-04-15T13:43:37.774Z,59.50
2023-04-15T13:46:06.000Z,59.43
2023-04-15T13:48:34.173Z,58.69
2023-04-15T13:51:02.304Z,58.99
2023-04-15T13:53:37.988Z,59.44
2023-04-15T13:56:08.562Z,59.58
2023-04-15T13:58:38.140Z,59.73
2023-04-15T14:01:07.422Z,59.40
2023-04-15T14:03:36.923Z,59.05
2023-04-15T14:06:06.615Z,59.39
2023-04-15T14:08:34.961Z,59.54
2023-04-15T14:11:03.231Z,59.76
2023-04-15T14:13:31.493Z,59.90
2023-04-15T14:16:00.013Z,60.01
2023-04-15T14:18:28.422Z,60.27
2023-04-15T14:20:57.190Z,60.37
2023-04-15T14:23:25.364Z,60.28
2023-04-15T14:25:53.671Z,60.21
2023-04-15T14:28:21.764Z,60.24
2023-04-15T14:30:50.070Z,59.36
2023-04-15T14:33:18.220Z,59.20
2023-04-15T14:35:46.627Z,59.14
2023-04-15T14:38:14.712Z,58.43
2023-04-15T14:40:43.041Z,58.25
2023-04-15T14:43:11.189Z,57.24
2023-04-15T14:45:42.060Z,57.02
2023-04-15T14:48:12.883Z,57.43
2023-04-15T14:50:41.233Z,57.38
2023-04-15T14:53:09.706Z,57.71
2023-04-15T14:55:37.866Z,56.33
2023-04-15T14:58:08.381Z,56.30
2023-04-15T15:00:42.001Z,57.25
2023-04-15T15:03:14.883Z,57.49
2023-04-15T15:05:47.396Z,57.46
2023-04-15T15:08:15.726Z,57.89
2023-04-15T15:10:48.485Z,58.25
2023-04-15T15:13:19.278Z,58.33
2023-04-15T15:15:49.815Z,58.76
2023-04-15T15:18:21.544Z,59.03
2023-04-15T15:20:50.101Z,59.15
2023-04-15T15:23:18.980Z,59.16
2023-04-15T15:25:47.802Z,59.20
2023-04-15T15:28:16.264Z,59.22
2023-04-15T15:30:44.346Z,59.13
2023-04-15T15:33:12.574Z,59.09
2023-04-15T15:35:41.242Z,59.47
2023-04-15T15:38:12.012Z,59.40
2023-04-15T15:40:40.135Z,59.29
2023-04-15T15:43:08.587Z,59.03
2023-04-15T15:45:36.755Z,58.68
2023-04-15T15:48:05.563Z,58.68
2023-04-15T15:50:34.645Z,58.64
2023-04-15T15:53:03.016Z,58.86
2023-04-15T15:55:31.489Z,58.85
2023-04-15T15:57:59.639Z,58.83
2023-04-15T16:00:27.734Z,58.42
2023-04-15T16:05:28.618Z,58.87
2023-04-15T16:07:56.835Z,59.18
2023-04-15T16:10:24.929Z,58.81
2023-04-15T16:12:53.222Z,58.85
2023-04-15T16:15:23.129Z,59.09
2023-04-15T16:17:51.553Z,59.35
2023-04-15T16:20:19.902Z,59.38
2023-04-15T16:22:48.300Z,60.11
2023-04-15T16:25:16.407Z,60.27
2023-04-15T16:27:58.740Z,60.60
2023-04-15T16:30:29.491Z,61.66
2023-04-15T16:32:57.924Z,61.68
2023-04-15T16:35:26.226Z,61.72
2023-04-15T16:37:54.399Z,62.12
2023-04-15T16:40:22.498Z,62.43
2023-04-15T16:42:51.350Z,62.92
2023-04-15T16:45:19.528Z,63.29
2023-04-15T16:47:47.758Z,63.41
2023-04-15T16:50:16.508Z,63.86
2023-04-15T16:52:44.778Z,64.53
2023-04-15T16:55:13.063Z,64.49
2023-04-15T16:58:02.184Z,63.76
2023-04-15T17:00:29.796Z,64.60
2023-04-15T17:02:58.628Z,64.60
2023-04-15T17:05:27.790Z,64.85
2023-04-15T17:07:56.050Z,64.97
2023-04-15T17:10:24.224Z,64.73
2023-04-15T17:12:53.563Z,65.73
2023-04-15T17:15:21.789Z,66.48
2023-04-15T17:17:51.156Z,65.87
2023-04-15T17:20:19.446Z,66.41
2023-04-15T17:22:49.108Z,66.60
2023-04-15T17:25:17.858Z,66.96
2023-04-15T17:27:45.959Z,68.50
2023-04-15T17:30:14.089Z,68.03
2023-04-15T17:32:42.363Z,68.66
2023-04-15T17:35:10.605Z,68.79
2023-04-15T17:37:38.888Z,68.54
2023-04-15T17:40:08.748Z,70.80
2023-04-15T17:42:37.154Z,70.02
2023-04-15T17:45:05.852Z,70.59
2023-04-15T17:47:34.105Z,71.65
2023-04-15T17:50:02.333Z,72.56
2023-04-15T17:52:30.623Z,71.29
2023-04-15T17:54:58.806Z,72.30
2023-04-15T17:57:27.028Z,71.65
2023-04-15T17:59:55.196Z,73.04
2023-04-15T18:02:23.719Z,72.24
2023-04-15T18:04:52.429Z,73.34
2023-04-15T18:07:21.006Z,72.75
2023-04-15T18:09:50.810Z,72.78
2023-04-15T18:12:19.202Z,73.48
2023-04-15T18:14:47.371Z,73.04
2023-04-15T18:17:15.951Z,72.94
2023-04-15T18:19:44.167Z,73.14
2023-04-15T18:22:12.714Z,73.84
2023-04-15T18:24:40.885Z,74.69
2023-04-15T18:27:09.162Z,74.65
2023-04-15T18:29:37.627Z,74.40
2023-04-15T18:32:06.296Z,74.34
2023-04-15T18:34:34.651Z,74.59
2023-04-15T18:37:03.455Z,74.43
2023-04-15T18:39:31.739Z,75.99
2023-04-15T18:42:00.065Z,76.01
2023-04-15T18:44:28.748Z,76.72
2023-04-15T18:46:57.111Z,75.55
2023-04-15T18:49:27.341Z,76.72
2023-04-15T18:51:55.831Z,77.65
2023-04-15T18:54:24.092Z,79.22
2023-04-15T18:56:52.241Z,79.84
2023-04-15T18:59:30.122Z,79.71
2023-04-15T19:02:00.418Z,81.76
2023-04-15T19:04:31.651Z,82.36
2023-04-15T19:07:00.023Z,82.17
2023-04-15T19:09:29.086Z,82.99
2023-04-15T19:11:57.794Z,83.91
2023-04-15T19:14:26.268Z,84.09
2023-04-15T19:16:54.950Z,83.60
2023-04-15T19:19:23.089Z,84.47
2023-04-15T19:21:53.312Z,84.31
2023-04-15T19:24:21.536Z,84.82
2023-04-15T19:26:51.298Z,85.01
2023-04-15T19:29:19.620Z,84.71
2023-04-15T19:31:47.887Z,84.95
2023-04-15T19:34:16.821Z,84.85
2023-04-15T19:36:45.055Z,84.99
2023-04-15T19:39:13.741Z,85.08
2023-04-15T19:41:41.934Z,85.05
2023-04-15T19:44:12.969Z,85.03
2023-04-15T19:46:43.750Z,84.87
2023-04-15T19:49:12.165Z,84.97
2023-04-15T19:51:41.893Z,84.84
2023-04-15T19:54:10.162Z,84.36
2023-04-15T19:56:38.326Z,84.83
2023-04-15T19:59:06.692Z,85.22
2023-04-15T20:01:35.491Z,84.94
2023-04-15T20:04:04.271Z,84.77
2023-04-15T20:06:32.829Z,84.56
2023-04-15T20:09:01.422Z,84.29
2023-04-15T20:12:46.965Z,84.84
2023-04-15T20:14:18.118Z,84.84
2023-04-15T20:16:46.245Z,86.15
2023-04-15T20:19:14.825Z,86.21
2023-04-15T20:21:43.209Z,86.72
2023-04-15T20:24:11.579Z,86.35
2023-04-15T20:26:39.872Z,85.31
2023-04-15T20:29:08.369Z,85.45
2023-04-15T20:31:39.939Z,85.50
2023-04-15T20:34:10.027Z,85.91
2023-04-15T20:36:40.107Z,85.50
2023-04-15T20:39:08.383Z,86.91
2023-04-15T20:41:36.679Z,86.25
2023-04-15T20:44:04.853Z,85.92
2023-04-15T20:46:33.048Z,85.94
2023-04-15T20:49:01.210Z,85.83
2023-04-15T20:51:33.375Z,85.47
2023-04-15T20:54:01.538Z,86.00
2023-04-15T20:56:29.719Z,85.97
2023-04-15T20:58:58.299Z,87.94
2023-04-15T21:01:26.597Z,87.95
2023-04-15T21:03:55.107Z,87.55
2023-04-15T21:06:23.436Z,86.86
2023-04-15T21:08:52.640Z,87.17
2023-04-15T21:11:40.585Z,86.94
2023-04-15T21:14:09.334Z,87.20
2023-04-15T21:16:37.447Z,87.90
2023-04-15T21:19:05.959Z,86.78
2023-04-15T21:21:34.363Z,86.47
2023-04-15T21:24:02.565Z,86.87
2023-04-15T21:26:30.858Z,87.90
2023-04-15T21:28:58.968Z,87.25
2023-04-15T21:31:27.237Z,86.01
2023-04-15T21:33:55.562Z,85.80
2023-04-15T21:36:23.739Z,85.50
2023-04-15T21:38:51.916Z,87.06
2023-04-15T21:41:20.085Z,85.91
2023-04-15T21:43:48.362Z,86.20
2023-04-15T21:46:23.292Z,85.46
2023-04-15T21:48:53.726Z,85.53
2023-04-15T21:51:22.094Z,85.70
2023-04-15T21:53:50.482Z,84.38
2023-04-15T21:56:20.798Z,85.15
2023-04-15T21:58:48.975Z,85.52
2023-04-15T22:01:17.694Z,85.90
2023-04-15T22:03:46.304Z,86.59
2023-04-15T22:06:14.722Z,88.52
2023-04-15T22:08:54.814Z,92.36
2023-04-15T22:11:30.574Z,92.55
2023-04-15T22:13:59.517Z,91.24
2023-04-15T22:16:28.443Z,92.84
2023-04-15T22:18:56.790Z,91.87
2023-04-15T22:21:25.172Z,90.92
2023-04-15T22:24:32.074Z,90.55
2023-04-15T22:26:41.848Z,92.02
2023-04-15T22:29:10.785Z,90.47
2023-04-15T22:31:39.123Z,88.90
2023-04-15T22:34:07.322Z,88.68
2023-04-15T22:36:35.604Z,89.52
2023-04-15T22:39:04.103Z,88.39
2023-04-15T22:41:32.665Z,88.10
2023-04-15T22:44:00.870Z,87.28
2023-04-15T22:46:29.254Z,87.57
2023-04-15T22:48:57.501Z,87.77
2023-04-15T22:51:29.295Z,87.81
2023-04-15T22:53:57.558Z,87.38
2023-04-15T22:56:25.912Z,86.92
2023-04-15T22:58:54.393Z,86.33
2023-04-15T23:01:22.692Z,86.32
2023-04-15T23:03:57.390Z,86.06
2023-04-15T23:06:32.643Z,86.29
2023-04-15T23:09:01.112Z,87.09
2023-04-15T23:11:29.391Z,87.86
2023-04-15T23:13:57.788Z,87.60
2023-04-15T23:16:27.535Z,87.65
2023-04-15T23:18:55.763Z,88.61
2023-04-15T23:21:25.887Z,87.39
2023-04-15T23:23:54.867Z,87.44
2023-04-15T23:26:23.037Z,87.53
2023-04-15T23:28:51.208Z,87.91
2023-04-15T23:31:19.417Z,88.34
2023-04-15T23:33:47.786Z,88.16
2023-04-15T23:36:16.358Z,88.48
2023-04-15T23:38:44.618Z,88.40
2023-04-15T23:41:12.905Z,88.13
2023-04-15T23:43:41.069Z,87.77
2023-04-15T23:46:09.403Z,88.74
2023-04-15T23:48:38.436Z,90.03
2023-04-15T23:51:06.835Z,90.34
2023-04-15T23:53:35.094Z,91.32
2023-04-15T23:56:03.576Z,90.99
2023-04-15T23:58:33.996Z,90.77
